Time;durP1;ratioP1;P1;durP2;ratioP2;P2;SDS_P1;SDS_P2;PMS_P1;PMS_P2;Temp;Humidity;BMP_temperature;BMP_pressure;BME280_temperature;BME280_humidity;BME280_pressure;Samples;Min_cycle;Max_cycle;Signal;HPM_P1;HPM_P2
2021/11/21 00:02:17;;;;;;;20.23;10.93;;;8.90;99.90;;;;;;5025864;28;20048;-70
2021/11/21 00:05:22;;;;;;;22.73;11.25;;;9.00;99.90;;;;;;5031326;28;20064;-70
2021/11/21 00:08:28;;;;;;;17.95;10.50;;;9.00;99.90;;;;;;5011823;28;20049;-70
2021/11/21 00:11:32;;;;;;;28.35;16.45;;;9.00;99.90;;;;;;5027618;28;20056;-70
2021/11/21 00:14:36;;;;;;;34.13;18.35;;;8.80;99.90;;;;;;5030674;28;20048;-70
2021/11/21 00:17:40;;;;;;;33.38;19.27;;;8.70;99.90;;;;;;5031062;28;20045;-70
2021/11/21 00:20:45;;;;;;;35.50;19.75;;;8.40;99.90;;;;;;5030482;28;20056;-70
2021/11/21 00:23:48;;;;;;;174.77;28.42;;;8.10;99.90;;;;;;5029420;28;20076;-70
2021/11/21 00:26:52;;;;;;;65.47;28.33;;;7.80;99.90;;;;;;5031407;28;20056;-70
2021/11/21 00:29:57;;;;;;;47.28;22.17;;;7.60;99.90;;;;;;5027433;28;20503;-70
2021/11/21 00:33:02;;;;;;;35.92;21.05;;;7.50;99.90;;;;;;5030123;28;20044;-70
2021/11/21 00:36:06;;;;;;;39.05;22.60;;;7.50;99.90;;;;;;5031088;28;20048;-70
2021/11/21 00:39:11;;;;;;;45.30;20.17;;;7.40;99.90;;;;;;5030057;28;20495;-70
2021/11/21 00:42:16;;;;;;;31.13;19.83;;;7.30;99.90;;;;;;5030013;28;20082;-70
2021/11/21 00:45:20;;;;;;;60.60;24.70;;;7.30;99.90;;;;;;5030750;28;20045;-70
2021/11/21 00:48:24;;;;;;;45.95;21.02;;;7.10;99.90;;;;;;5010596;28;20055;-70
2021/11/21 00:51:28;;;;;;;117.75;24.73;;;7.10;99.90;;;;;;5023831;28;20044;-70
2021/11/21 00:54:52;;;;;;;249.02;32.53;;;6.90;99.90;;;;;;5030058;28;20074;-70
2021/11/21 00:57:56;;;;;;;169.63;20.02;;;6.80;99.90;;;;;;5030216;28;20060;-70
2021/11/21 01:01:01;;;;;;;137.98;20.88;;;6.60;99.90;;;;;;5029863;28;20052;-70
2021/11/21 01:04:04;;;;;;;51.22;16.80;;;6.50;99.90;;;;;;5029615;28;20060;-70
2021/11/21 01:07:11;;;;;;;125.72;17.95;;;6.40;99.90;;;;;;5030544;28;20120;-70
2021/11/21 01:10:17;;;;;;;56.75;14.52;;;6.30;99.90;;;;;;5028575;28;20044;-70
2021/11/21 01:13:24;;;;;;;46.08;15.02;;;6.20;99.90;;;;;;5029015;28;20078;-70
2021/11/21 01:16:29;;;;;;;67.10;15.13;;;6.20;99.90;;;;;;5030249;28;20048;-70
2021/11/21 01:19:34;;;;;;;38.38;14.63;;;6.20;99.90;;;;;;5028956;28;20041;-70
2021/11/21 01:22:38;;;;;;;19.63;12.95;;;6.10;99.90;;;;;;5029747;28;20044;-70
2021/11/21 01:25:45;;;;;;;18.27;12.55;;;6.10;99.90;;;;;;5030079;28;20503;-70
2021/11/21 01:28:48;;;;;;;18.88;13.45;;;6.00;99.90;;;;;;5030098;28;20048;-70
2021/11/21 01:31:53;;;;;;;21.55;13.32;;;5.90;99.90;;;;;;5029559;28;20498;-70
2021/11/21 01:34:57;;;;;;;23.60;13.95;;;5.80;99.90;;;;;;5029597;28;20061;-70
2021/11/21 01:38:02;;;;;;;29.17;16.90;;;5.90;99.90;;;;;;5010189;28;20045;-70
2021/11/21 01:41:06;;;;;;;30.65;15.10;;;6.00;99.90;;;;;;5026478;28;20400;-70
2021/11/21 01:44:12;;;;;;;28.33;15.95;;;6.00;99.90;;;;;;5029378;28;20044;-70
2021/11/21 01:47:17;;;;;;;29.13;17.05;;;6.10;99.90;;;;;;5030127;28;20053;-70
2021/11/21 01:50:28;;;;;;;26.15;15.75;;;6.10;99.90;;;;;;5029209;28;20044;-70
2021/11/21 01:53:32;;;;;;;28.50;15.30;;;6.20;99.90;;;;;;5029184;28;20048;-70
2021/11/21 01:56:35;;;;;;;30.92;14.75;;;6.20;99.90;;;;;;5030260;28;20040;-70
2021/11/21 01:59:39;;;;;;;32.25;14.43;;;6.30;99.90;;;;;;5027551;28;20053;-70
2021/11/21 02:02:45;;;;;;;33.08;14.43;;;6.20;99.90;;;;;;5029635;28;20052;-70
2021/11/21 02:05:49;;;;;;;38.22;14.10;;;6.20;99.90;;;;;;5029778;28;20056;-70
2021/11/21 02:08:56;;;;;;;34.13;14.30;;;6.30;99.90;;;;;;5033089;28;20040;-70
2021/11/21 02:12:00;;;;;;;24.60;12.55;;;6.40;99.90;;;;;;5036511;28;20045;-70
2021/11/21 02:15:09;;;;;;;36.22;14.05;;;6.50;99.90;;;;;;5033465;28;20045;-70
2021/11/21 02:18:14;;;;;;;44.53;14.43;;;6.50;99.90;;;;;;5013736;28;20061;-70
2021/11/21 02:21:19;;;;;;;49.30;13.90;;;6.50;99.90;;;;;;5028741;28;20052;-70
2021/11/21 02:24:24;;;;;;;70.22;17.80;;;6.50;99.90;;;;;;5033140;28;20056;-70
2021/11/21 02:27:29;;;;;;;48.60;16.80;;;6.50;99.90;;;;;;5033683;28;20045;-70
2021/11/21 02:30:34;;;;;;;439.15;38.30;;;6.50;99.90;;;;;;5032697;28;20073;-70
2021/11/21 02:33:39;;;;;;;636.45;50.45;;;6.50;99.90;;;;;;5032649;28;20117;-70
2021/11/21 02:36:44;;;;;;;32.38;17.23;;;6.40;99.90;;;;;;5033273;28;20048;-70
2021/11/21 02:39:48;;;;;;;285.95;34.25;;;6.50;99.90;;;;;;5028694;28;20327;-70
2021/11/21 02:42:51;;;;;;;38.03;17.17;;;6.60;99.90;;;;;;5032349;28;20049;-70
2021/11/21 02:45:56;;;;;;;93.88;17.73;;;6.70;99.90;;;;;;5032924;28;20502;-70
2021/11/21 02:49:01;;;;;;;128.75;18.55;;;6.70;99.90;;;;;;5030796;28;20068;-70
2021/11/21 02:52:05;;;;;;;99.57;18.73;;;6.80;99.90;;;;;;5032083;28;20045;-70
2021/11/21 02:55:10;;;;;;;26.98;13.93;;;6.90;99.90;;;;;;5032910;28;20526;-70
2021/11/21 02:58:14;;;;;;;143.80;17.05;;;7.00;99.90;;;;;;5031959;28;20048;-70
2021/11/21 03:01:22;;;;;;;39.42;13.88;;;7.00;99.90;;;;;;5032084;28;20044;-70
2021/11/21 03:04:26;;;;;;;81.80;15.57;;;7.00;99.90;;;;;;5032585;28;20515;-70
2021/11/21 03:07:30;;;;;;;152.68;16.92;;;7.00;99.90;;;;;;5013139;28;20053;-71
2021/11/21 03:10:35;;;;;;;329.05;23.42;;;7.00;99.90;;;;;;5038449;28;20068;-70
2021/11/21 03:13:39;;;;;;;91.55;18.52;;;6.90;99.90;;;;;;5032712;28;20048;-70
2021/11/21 03:16:46;;;;;;;146.38;18.63;;;7.00;99.90;;;;;;5032521;28;20053;-70
2021/11/21 03:19:50;;;;;;;236.98;21.33;;;7.00;99.90;;;;;;5029575;28;20040;-70
2021/11/21 03:22:55;;;;;;;34.78;10.68;;;7.00;99.90;;;;;;5032068;28;20068;-70
2021/11/21 03:25:59;;;;;;;86.65;11.60;;;6.90;99.90;;;;;;5032692;28;20052;-70
2021/11/21 03:29:05;;;;;;;39.17;10.65;;;6.90;99.90;;;;;;5031844;28;20045;-70
2021/11/21 03:32:09;;;;;;;12.90;8.82;;;6.90;99.90;;;;;;5031743;28;20124;-70
2021/11/21 03:35:15;;;;;;;74.47;11.57;;;6.90;99.90;;;;;;5032422;28;20040;-70
2021/11/21 03:38:19;;;;;;;90.68;11.95;;;6.90;99.90;;;;;;5030143;28;20052;-70
2021/11/21 03:41:24;;;;;;;107.53;12.00;;;6.90;99.90;;;;;;5031703;28;20044;-69
2021/11/21 03:44:30;;;;;;;54.20;9.55;;;6.90;99.90;;;;;;5032311;28;20499;-70
2021/11/21 03:47:34;;;;;;;30.10;9.90;;;6.90;99.90;;;;;;5012456;28;20057;-69
2021/11/21 03:50:38;;;;;;;17.98;10.00;;;6.80;99.90;;;;;;5025037;28;20056;-70
2021/11/21 03:53:42;;;;;;;16.13;10.10;;;6.80;99.90;;;;;;5032221;28;20049;-70
2021/11/21 03:56:46;;;;;;;12.82;8.93;;;6.80;99.90;;;;;;5030689;28;20404;-70
2021/11/21 03:59:50;;;;;;;15.38;9.68;;;6.90;99.90;;;;;;5030761;28;20396;-70
2021/11/21 04:02:56;;;;;;;14.10;8.98;;;6.90;99.90;;;;;;5031328;28;20076;-70
2021/11/21 04:06:00;;;;;;;14.63;9.23;;;6.90;99.90;;;;;;5011682;28;20041;-70
2021/11/21 04:09:03;;;;;;;15.48;10.35;;;6.90;99.90;;;;;;5028045;28;20047;-70
2021/11/21 04:12:08;;;;;;;16.05;9.63;;;6.90;99.90;;;;;;5030801;28;20040;-70
2021/11/21 04:15:13;;;;;;;16.30;10.48;;;6.90;99.90;;;;;;5031315;28;20396;-70
2021/11/21 04:18:19;;;;;;;16.15;10.40;;;6.90;99.90;;;;;;5030020;28;20396;-70
2021/11/21 04:21:23;;;;;;;19.85;11.15;;;6.90;99.90;;;;;;5030345;28;20060;-70
2021/11/21 04:24:28;;;;;;;27.35;12.88;;;6.90;99.90;;;;;;5031089;28;20044;-70
2021/11/21 04:27:33;;;;;;;48.35;14.23;;;7.00;99.90;;;;;;5028700;28;20045;-70
2021/11/21 04:30:38;;;;;;;114.78;15.63;;;7.00;99.90;;;;;;5030238;28;20053;-70
2021/11/21 04:33:42;;;;;;;29.55;11.90;;;7.10;99.90;;;;;;5030973;28;20416;-70
2021/11/21 04:36:47;;;;;;;27.25;11.40;;;7.10;99.90;;;;;;5011035;28;20407;-70
2021/11/21 04:39:50;;;;;;;49.10;13.63;;;7.10;99.90;;;;;;5022843;28;20064;-70
2021/11/21 04:42:54;;;;;;;23.73;11.27;;;7.10;99.90;;;;;;5030654;28;20048;-70
2021/11/21 04:45:59;;;;;;;30.15;12.50;;;7.10;99.90;;;;;;5011209;28;20392;-70
2021/11/21 04:49:04;;;;;;;26.58;11.85;;;7.00;99.90;;;;;;5024942;28;20060;-70
2021/11/21 04:52:09;;;;;;;109.75;17.20;;;7.00;99.90;;;;;;5030297;28;20044;-70
2021/11/21 04:55:14;;;;;;;116.10;17.30;;;7.10;99.90;;;;;;5010851;28;20041;-70
2021/11/21 04:58:18;;;;;;;54.15;15.32;;;7.10;99.90;;;;;;5026804;28;20052;-70
2021/11/21 05:01:22;;;;;;;67.50;16.60;;;7.10;99.90;;;;;;5030198;28;20044;-70
2021/11/21 05:04:26;;;;;;;71.88;14.60;;;7.20;99.90;;;;;;5030886;28;20040;-70
2021/11/21 05:07:30;;;;;;;31.65;12.60;;;7.20;99.90;;;;;;5029575;28;20048;-70
2021/11/21 05:10:34;;;;;;;110.90;15.10;;;7.20;99.90;;;;;;5029523;28;20296;-69
2021/11/21 05:13:40;;;;;;;107.63;15.75;;;7.20;99.90;;;;;;5030287;28;20503;-70
2021/11/21 05:16:46;;;;;;;31.05;14.05;;;7.20;99.90;;;;;;5029668;28;20399;-70
2021/11/21 05:19:50;;;;;;;24.90;13.13;;;7.20;99.90;;;;;;5029013;28;20490;-70
2021/11/21 05:22:54;;;;;;;22.35;12.00;;;7.20;99.90;;;;;;5030170;28;20036;-70
2021/11/21 05:25:58;;;;;;;46.33;14.95;;;7.30;99.90;;;;;;5029741;28;20040;-70
2021/11/21 05:29:03;;;;;;;519.55;39.15;;;7.20;99.90;;;;;;5029191;28;20044;-70
2021/11/21 05:32:07;;;;;;;352.63;29.75;;;7.10;99.90;;;;;;5037350;28;20060;-70
2021/11/21 05:35:11;;;;;;;351.35;29.42;;;7.10;99.90;;;;;;5010694;28;20049;-70
2021/11/21 05:38:15;;;;;;;430.35;34.25;;;7.10;99.90;;;;;;5023422;28;20068;-70
2021/11/21 05:41:19;;;;;;;271.95;26.00;;;7.10;99.90;;;;;;5028830;28;20044;-70
2021/11/21 05:44:23;;;;;;;47.80;16.50;;;7.20;99.90;;;;;;5010555;28;20061;-70
2021/11/21 05:47:28;;;;;;;115.68;17.58;;;7.30;99.90;;;;;;5026104;28;20499;-70
2021/11/21 05:50:32;;;;;;;27.00;13.45;;;7.40;99.90;;;;;;5029777;28;20040;-70
2021/11/21 05:53:37;;;;;;;66.28;17.50;;;7.40;99.90;;;;;;5030018;28;20052;-70
2021/11/21 05:56:41;;;;;;;27.73;13.52;;;7.40;99.90;;;;;;5029499;28;20049;-70
2021/11/21 05:59:45;;;;;;;57.28;16.52;;;7.50;99.90;;;;;;5029218;28;20068;-70
2021/11/21 06:02:50;;;;;;;165.38;24.02;;;7.50;99.90;;;;;;5028909;28;20049;-70
2021/11/21 06:05:54;;;;;;;57.90;20.10;;;7.40;99.90;;;;;;5026052;28;20319;-70
2021/11/21 06:08:58;;;;;;;43.53;16.23;;;7.40;99.90;;;;;;5029488;28;20527;-70
2021/11/21 06:12:05;;;;;;;32.85;14.18;;;7.50;99.90;;;;;;5030080;28;20052;-70
2021/11/21 06:15:10;;;;;;;131.20;20.15;;;7.50;99.90;;;;;;5028490;28;20048;-70
2021/11/21 06:18:13;;;;;;;355.27;28.08;;;7.50;99.90;;;;;;5028660;28;20044;-70
2021/11/21 06:21:17;;;;;;;610.22;46.42;;;7.30;99.90;;;;;;5030001;28;20503;-70
2021/11/21 06:24:22;;;;;;;173.93;23.55;;;7.10;99.90;;;;;;5029308;28;20384;-70
2021/11/21 06:27:26;;;;;;;354.77;31.55;;;7.20;99.90;;;;;;5029152;28;20052;-70
2021/11/21 06:30:30;;;;;;;118.07;20.90;;;7.00;99.90;;;;;;5029723;28;20067;-70
2021/11/21 06:33:34;;;;;;;159.10;21.92;;;7.20;99.90;;;;;;5010626;28;20044;-70
2021/11/21 06:36:39;;;;;;;116.28;19.17;;;7.40;99.90;;;;;;5025244;28;20526;-70
2021/11/21 06:39:43;;;;;;;34.85;16.52;;;7.40;99.90;;;;;;5029496;28;20044;-70
2021/11/21 06:42:48;;;;;;;31.60;15.23;;;7.50;99.90;;;;;;5029975;28;20040;-70
2021/11/21 06:45:52;;;;;;;77.38;18.15;;;7.40;99.90;;;;;;5029357;28;20040;-70
2021/11/21 06:48:56;;;;;;;284.08;25.92;;;7.40;99.90;;;;;;5028884;28;20048;-70
2021/11/21 06:52:00;;;;;;;47.25;15.77;;;7.40;99.90;;;;;;5029615;28;20494;-70
2021/11/21 06:55:06;;;;;;;203.10;23.27;;;7.40;99.90;;;;;;5031341;28;20417;-70
2021/11/21 06:58:10;;;;;;;30.40;14.65;;;7.60;99.90;;;;;;5031722;28;20044;-70
2021/11/21 07:01:15;;;;;;;143.15;20.27;;;7.70;99.90;;;;;;5033059;28;20045;-70
2021/11/21 07:04:19;;;;;;;115.35;19.98;;;7.80;99.90;;;;;;5032740;28;20049;-70
2021/11/21 07:07:23;;;;;;;259.38;24.08;;;7.80;99.90;;;;;;5032146;28;20053;-70
2021/11/21 07:10:27;;;;;;;350.80;30.65;;;7.60;99.90;;;;;;5031792;28;20068;-70
2021/11/21 07:13:31;;;;;;;200.35;23.67;;;7.60;99.90;;;;;;5032299;28;20052;-70
2021/11/21 07:16:35;;;;;;;132.88;20.95;;;7.70;99.90;;;;;;5032042;28;20051;-70
2021/11/21 07:19:40;;;;;;;76.80;19.17;;;7.70;99.90;;;;;;5031139;28;20056;-70
2021/11/21 07:22:47;;;;;;;88.50;18.33;;;7.90;99.90;;;;;;5012872;28;20060;-70
2021/11/21 07:25:51;;;;;;;138.68;18.65;;;7.90;99.90;;;;;;5027234;28;20141;-70
2021/11/21 07:28:56;;;;;;;94.05;18.75;;;8.00;99.90;;;;;;5031603;28;20483;-70
2021/11/21 07:32:03;;;;;;;103.07;20.80;;;8.10;99.90;;;;;;5013097;28;20057;-70
2021/11/21 07:35:08;;;;;;;118.88;21.45;;;8.20;99.90;;;;;;5029430;28;20044;-70
2021/11/21 07:38:12;;;;;;;296.20;26.90;;;8.40;99.90;;;;;;5031237;28;20109;-70
2021/11/21 07:41:16;;;;;;;299.98;25.90;;;8.10;99.90;;;;;;5032194;28;20045;-70
2021/11/21 07:44:21;;;;;;;364.50;31.80;;;8.10;99.90;;;;;;5031374;28;20065;-70
2021/11/21 07:47:24;;;;;;;508.90;34.60;;;8.00;99.90;;;;;;5031409;28;20522;-70
2021/11/21 07:50:28;;;;;;;100.97;20.67;;;7.90;99.90;;;;;;5032046;28;20125;-70
2021/11/21 07:53:33;;;;;;;141.63;19.90;;;8.10;99.90;;;;;;5042185;28;20303;-70
2021/11/21 07:56:36;;;;;;;485.50;40.20;;;8.40;99.90;;;;;;5030951;28;20056;-70
2021/11/21 07:59:40;;;;;;;107.85;21.52;;;8.30;99.90;;;;;;5031624;28;20678;-70
2021/11/21 08:02:45;;;;;;;285.88;30.17;;;8.40;99.90;;;;;;5030780;28;20436;-70
2021/11/21 08:05:48;;;;;;;309.00;26.95;;;8.50;99.90;;;;;;5030876;28;20044;-70
2021/11/21 08:08:52;;;;;;;181.80;25.25;;;8.40;99.90;;;;;;5030877;28;20056;-70
2021/11/21 08:11:56;;;;;;;402.67;30.58;;;8.50;99.90;;;;;;5012098;28;20045;-70
2021/11/21 08:15:00;;;;;;;124.95;18.38;;;8.50;99.90;;;;;;5035816;28;20403;-70
2021/11/21 08:18:05;;;;;;;142.38;20.58;;;8.70;99.90;;;;;;5041570;28;20612;-70
2021/11/21 08:21:09;;;;;;;246.80;22.20;;;8.80;99.90;;;;;;5011747;28;20061;-70
2021/11/21 08:24:13;;;;;;;105.70;17.20;;;8.80;99.90;;;;;;5026857;28;20056;-70
2021/11/21 08:27:17;;;;;;;164.75;22.05;;;8.80;99.90;;;;;;5030974;28;20045;-70
2021/11/21 08:30:23;;;;;;;156.75;23.05;;;8.80;99.90;;;;;;5011411;28;20412;-69
2021/11/21 08:33:27;;;;;;;73.22;21.15;;;9.00;99.90;;;;;;5029292;28;20050;-70
2021/11/21 08:36:31;;;;;;;44.47;17.48;;;9.20;99.90;;;;;;5030457;28;20397;-70
2021/11/21 08:39:35;;;;;;;34.83;17.70;;;9.30;99.90;;;;;;5030856;28;20514;-70
2021/11/21 08:42:39;;;;;;;44.60;18.80;;;9.70;99.90;;;;;;5030582;28;20036;-70
2021/11/21 08:45:45;;;;;;;34.80;18.30;;;10.20;99.90;;;;;;5030082;28;20495;-70
2021/11/21 08:48:49;;;;;;;32.15;17.58;;;11.00;99.90;;;;;;5030605;28;20385;-70
2021/11/21 08:51:53;;;;;;;29.25;16.25;;;11.00;99.90;;;;;;5028643;28;20048;-70
2021/11/21 08:54:57;;;;;;;26.98;15.15;;;11.50;99.90;;;;;;5029831;28;20113;-70
2021/11/21 08:58:04;;;;;;;30.27;15.73;;;13.50;99.90;;;;;;5030337;28;20049;-71
2021/11/21 09:01:08;;;;;;;22.40;13.57;;;16.40;99.90;;;;;;5010779;28;20068;-71
2021/11/21 09:04:13;;;;;;;23.30;13.82;;;17.60;99.90;;;;;;5023679;28;20301;-71
2021/11/21 09:07:17;;;;;;;22.83;14.15;;;18.30;99.90;;;;;;5030153;28;20045;-71
2021/11/21 09:10:22;;;;;;;22.63;13.80;;;17.10;99.90;;;;;;5010352;28;20315;-71
2021/11/21 09:13:31;;;;;;;25.85;14.95;;;14.90;99.90;;;;;;5025647;28;20041;-70
2021/11/21 09:16:35;;;;;;;28.05;13.90;;;13.50;99.90;;;;;;5029262;28;20096;-70
2021/11/21 09:19:38;;;;;;;33.88;16.17;;;13.00;99.90;;;;;;5010112;28;20053;-70
2021/11/21 09:22:43;;;;;;;32.97;17.55;;;12.50;99.90;;;;;;5028141;28;20056;-70
2021/11/21 09:25:47;;;;;;;34.65;17.63;;;11.90;99.90;;;;;;5029421;28;20037;-70
2021/11/21 09:28:51;;;;;;;45.13;18.90;;;12.00;99.90;;;;;;5030121;28;20049;-70
2021/11/21 09:31:55;;;;;;;44.17;18.63;;;11.80;99.90;;;;;;5029641;28;20048;-70
2021/11/21 09:34:59;;;;;;;39.83;18.80;;;11.70;99.90;;;;;;5029552;28;20052;-70
2021/11/21 09:38:05;;;;;;;30.02;17.27;;;12.80;99.90;;;;;;5030117;28;20053;-71
2021/11/21 09:41:09;;;;;;;34.63;16.92;;;12.90;99.90;;;;;;5027519;28;20028;-71
2021/11/21 09:44:15;;;;;;;30.67;17.17;;;13.50;99.90;;;;;;5030892;28;20048;-70
2021/11/21 09:47:18;;;;;;;28.55;15.55;;;14.30;99.90;;;;;;5030601;28;20060;-70
2021/11/21 09:50:23;;;;;;;34.95;17.58;;;16.20;99.90;;;;;;5029659;28;20523;-71
2021/11/21 09:53:27;;;;;;;35.45;17.48;;;16.40;99.90;;;;;;5029359;28;20045;-70
2021/11/21 09:56:31;;;;;;;29.33;16.05;;;15.90;99.90;;;;;;5029755;28;20044;-71
2021/11/21 10:00:02;;;;;;;29.42;15.38;;;17.00;99.90;;;;;;5029494;28;20403;-71
2021/11/21 10:03:13;;;;;;;29.35;15.48;;;18.00;99.90;;;;;;5029294;28;20052;-71
2021/11/21 10:06:36;;;;;;;26.88;15.80;;;19.50;99.90;;;;;;5029206;28;20073;-71
2021/11/21 10:09:43;;;;;;;26.88;14.90;;;20.00;99.90;;;;;;5029688;28;20052;-71
2021/11/21 10:12:47;;;;;;;27.27;17.83;;;21.00;99.90;;;;;;5030053;28;20068;-71
2021/11/21 10:15:52;;;;;;;25.50;16.92;;;22.20;99.90;;;;;;5028999;28;20396;-71
2021/11/21 10:19:06;;;;;;;35.03;17.23;;;21.20;99.90;;;;;;5028316;28;20418;-71
2021/11/21 10:22:10;;;;;;;26.42;17.00;;;21.40;99.90;;;;;;5029839;28;20052;-71
2021/11/21 10:25:35;;;;;;;26.75;17.55;;;21.70;99.90;;;;;;5029245;28;20052;-71
2021/11/21 10:28:39;;;;;;;33.65;20.60;;;22.30;99.90;;;;;;5030447;28;20399;-71
2021/11/21 10:31:44;;;;;;;41.05;22.20;;;17.70;99.90;;;;;;5033373;28;20403;-71
2021/11/21 10:34:54;;;;;;;31.13;18.45;;;17.80;99.90;;;;;;5030230;28;20404;-71
2021/11/21 10:38:00;;;;;;;32.00;19.08;;;21.30;99.90;;;;;;5032663;28;20052;-71
2021/11/21 10:41:14;;;;;;;37.58;21.38;;;20.60;99.90;;;;;;5033431;28;20072;-71
2021/11/21 10:44:20;;;;;;;38.33;22.13;;;19.80;99.90;;;;;;5013485;28;20041;-71
2021/11/21 10:47:39;;;;;;;36.90;20.73;;;18.50;99.90;;;;;;5027111;28;20068;-70
2021/11/21 10:50:49;;;;;;;86.40;45.47;;;19.30;99.90;;;;;;5032235;28;20041;-71
2021/11/21 10:53:54;;;;;;;95.03;51.50;;;18.40;99.90;;;;;;5033197;28;20044;-71
2021/11/21 10:57:03;;;;;;;119.45;64.45;;;19.70;99.90;;;;;;5032305;28;20037;-71
2021/11/21 11:00:19;;;;;;;40.92;23.88;;;19.90;99.90;;;;;;5031729;28;20048;-71
2021/11/21 11:03:25;;;;;;;33.97;21.33;;;19.10;99.90;;;;;;5033064;28;20584;-71
2021/11/21 11:06:29;;;;;;;34.35;21.70;;;18.60;99.90;;;;;;5032394;28;20045;-71
2021/11/21 11:09:33;;;;;;;31.55;18.30;;;18.70;99.90;;;;;;5031969;28;20499;-70
2021/11/21 11:12:38;;;;;;;32.83;16.67;;;21.60;99.90;;;;;;5032020;28;20535;-70
2021/11/21 11:15:49;;;;;;;30.73;18.70;;;24.60;99.90;;;;;;5013092;28;20491;-71
2021/11/21 11:18:52;;;;;;;28.73;15.82;;;25.70;97.90;;;;;;5027230;28;20392;-71
2021/11/21 11:21:56;;;;;;;45.85;27.52;;;24.70;97.60;;;;;;5031529;28;20064;-71
2021/11/21 11:25:05;;;;;;;28.92;16.25;;;24.10;97.80;;;;;;5013114;28;20527;-72
2021/11/21 11:28:17;;;;;;;28.42;16.75;;;24.00;96.90;;;;;;5038105;28;20045;-71
2021/11/21 11:31:32;;;;;;;21.75;11.75;;;25.10;96.50;;;;;;5031476;28;20168;-72
2021/11/21 11:34:36;;;;;;;22.92;12.65;;;22.60;98.20;;;;;;5032499;28;20044;-71
2021/11/21 11:37:46;;;;;;;19.58;11.75;;;21.50;99.90;;;;;;5030346;28;20048;-71
2021/11/21 11:41:02;;;;;;;19.48;11.00;;;21.20;99.90;;;;;;5030469;28;20045;-71
2021/11/21 11:44:07;;;;;;;16.42;10.73;;;23.70;98.60;;;;;;5031217;28;20041;-71
2021/11/21 11:47:31;;;;;;;16.20;9.45;;;23.60;98.40;;;;;;5012634;28;20052;-71
2021/11/21 11:50:43;;;;;;;18.50;9.60;;;23.50;98.10;;;;;;5030148;28;20053;-71
2021/11/21 11:53:53;;;;;;;22.75;11.52;;;23.60;97.50;;;;;;5031366;28;20387;-71
2021/11/21 11:57:03;;;;;;;26.30;16.17;;;24.20;98.50;;;;;;5031570;28;20120;-71
2021/11/21 12:00:37;;;;;;;23.50;13.57;;;25.00;97.30;;;;;;5030014;28;20049;-71
2021/11/21 12:03:42;;;;;;;24.17;14.68;;;25.20;96.90;;;;;;5031222;28;20057;-71
2021/11/21 12:06:51;;;;;;;25.08;13.90;;;24.80;97.60;;;;;;5031163;28;20048;-71
2021/11/21 12:09:58;;;;;;;19.02;13.95;;;26.20;96.40;;;;;;5011870;28;20052;-72
2021/11/21 12:13:05;;;;;;;18.65;13.73;;;25.50;96.20;;;;;;5029937;28;20049;-71
2021/11/21 12:16:16;;;;;;;25.63;13.20;;;24.80;96.90;;;;;;5031012;28;20056;-71
2021/11/21 12:19:40;;;;;;;21.33;13.98;;;23.10;97.20;;;;;;5031175;28;20044;-71
2021/11/21 12:22:44;;;;;;;26.35;14.88;;;20.00;99.90;;;;;;5011714;28;20199;-71
2021/11/21 12:25:48;;;;;;;28.27;16.20;;;18.70;99.90;;;;;;5024395;28;20036;-71
2021/11/21 12:29:22;;;;;;;24.65;15.23;;;18.60;99.90;;;;;;5031011;28;20060;-71
2021/11/21 12:32:28;;;;;;;27.75;13.75;;;19.00;99.90;;;;;;5012800;28;20061;-71
2021/11/21 12:35:32;;;;;;;24.15;13.80;;;19.60;99.90;;;;;;5030211;28;20052;-71
2021/11/21 12:38:36;;;;;;;23.77;13.85;;;18.90;99.90;;;;;;5030088;28;20052;-71
2021/11/21 12:42:01;;;;;;;22.27;12.88;;;18.80;99.90;;;;;;5031108;28;20040;-71
2021/11/21 12:45:19;;;;;;;22.27;13.30;;;19.10;99.90;;;;;;5031159;28;20132;-71
2021/11/21 12:48:25;;;;;;;19.17;11.90;;;19.40;99.90;;;;;;5030215;28;20068;-71
2021/11/21 12:51:29;;;;;;;20.55;12.95;;;19.50;99.90;;;;;;5030864;28;20048;-71
2021/11/21 12:54:35;;;;;;;20.48;12.60;;;20.00;99.90;;;;;;5031254;28;20072;-71
2021/11/21 12:57:49;;;;;;;19.75;12.60;;;20.30;99.90;;;;;;5030306;28;20049;-71
2021/11/21 13:00:55;;;;;;;23.40;13.15;;;20.60;99.90;;;;;;5030174;28;20061;-71
2021/11/21 13:04:00;;;;;;;25.92;15.32;;;20.90;99.90;;;;;;5030709;28;20045;-71
2021/11/21 13:07:23;;;;;;;24.35;12.65;;;21.30;99.90;;;;;;5027309;28;20509;-71
2021/11/21 13:10:35;;;;;;;20.20;13.88;;;21.50;99.90;;;;;;5029757;28;20048;-71
2021/11/21 13:13:43;;;;;;;17.13;12.02;;;22.30;99.90;;;;;;5030164;28;20044;-71
2021/11/21 13:16:47;;;;;;;18.33;12.57;;;23.30;99.90;;;;;;5011147;28;20263;-71
2021/11/21 13:20:01;;;;;;;16.75;11.55;;;23.10;99.90;;;;;;5024840;28;20040;-71
2021/11/21 13:23:09;;;;;;;21.73;11.90;;;22.50;99.90;;;;;;5029293;28;20416;-71
2021/11/21 13:26:17;;;;;;;21.20;12.10;;;22.00;99.90;;;;;;5030513;28;20499;-72
2021/11/21 13:29:21;;;;;;;22.85;11.73;;;21.30;99.90;;;;;;5029543;28;20427;-71
2021/11/21 13:32:25;;;;;;;18.05;11.82;;;21.70;99.90;;;;;;5029656;28;20447;-71
2021/11/21 13:35:32;;;;;;;21.33;12.70;;;22.10;99.90;;;;;;5030344;28;20495;-71
2021/11/21 13:38:36;;;;;;;19.65;12.98;;;22.70;99.90;;;;;;5029482;28;20045;-71
2021/11/21 13:41:52;;;;;;;20.55;12.63;;;22.20;99.90;;;;;;5029574;28;20037;-71
2021/11/21 13:44:57;;;;;;;18.75;11.57;;;20.40;99.90;;;;;;5029729;28;20057;-71
2021/11/21 13:48:01;;;;;;;19.30;12.50;;;19.60;99.90;;;;;;5029949;28;20499;-71
2021/11/21 13:51:14;;;;;;;21.90;13.20;;;19.90;99.90;;;;;;5029555;28;20052;-71
2021/11/21 13:54:26;;;;;;;19.15;11.52;;;19.70;99.90;;;;;;5029537;28;20028;-71
2021/11/21 13:57:44;;;;;;;20.08;12.13;;;19.20;99.90;;;;;;5010723;28;20491;-71
2021/11/21 14:00:48;;;;;;;16.92;11.88;;;18.40;99.90;;;;;;5025921;28;20530;-71
2021/11/21 14:04:04;;;;;;;21.10;11.77;;;18.50;99.90;;;;;;5031793;28;20127;-71
2021/11/21 14:07:15;;;;;;;18.98;12.60;;;18.60;99.90;;;;;;5033719;28;20044;-71
2021/11/21 14:10:21;;;;;;;18.63;12.40;;;18.20;99.90;;;;;;5014302;28;20052;-71
2021/11/21 14:13:25;;;;;;;20.25;12.32;;;17.70;99.90;;;;;;5027385;28;20044;-71
2021/11/21 14:16:29;;;;;;;25.00;12.73;;;17.60;99.90;;;;;;5034035;28;20044;-71
2021/11/21 14:19:35;;;;;;;60.78;27.92;;;17.40;99.90;;;;;;5033159;28;20060;-71
2021/11/21 14:22:41;;;;;;;177.00;79.13;;;17.10;99.90;;;;;;5033486;28;20518;-70
2021/11/21 14:25:55;;;;;;;25.10;15.65;;;17.20;99.90;;;;;;5033250;28;20494;-70
2021/11/21 14:29:00;;;;;;;20.70;12.60;;;17.40;99.90;;;;;;5033742;28;20060;-71
2021/11/21 14:32:05;;;;;;;21.20;12.68;;;17.20;99.90;;;;;;5033060;28;20056;-70
2021/11/21 14:35:22;;;;;;;399.13;196.43;;;16.80;99.90;;;;;;5033139;28;20124;-70
2021/11/21 14:38:30;;;;;;;557.00;316.52;;;16.50;99.90;;;;;;5033028;28;20044;-70
2021/11/21 14:41:48;;;;;;;34.58;19.75;;;16.20;99.90;;;;;;5033695;28;20048;-70
2021/11/21 14:44:52;;;;;;;30.55;16.45;;;16.10;99.90;;;;;;5032757;28;20399;-70
2021/11/21 14:47:56;;;;;;;595.45;303.17;;;15.90;99.90;;;;;;5033461;28;20040;-70
2021/11/21 14:51:00;;;;;;;41.75;23.50;;;15.70;99.90;;;;;;5013392;28;20048;-70
2021/11/21 14:54:09;;;;;;;24.38;13.93;;;15.50;99.90;;;;;;5029118;28;20040;-70
2021/11/21 14:57:20;;;;;;;26.85;15.45;;;15.20;99.90;;;;;;5033270;28;20053;-70
2021/11/21 15:00:26;;;;;;;28.20;14.93;;;15.00;99.90;;;;;;5032646;28;20235;-70
2021/11/21 15:03:30;;;;;;;24.10;13.38;;;14.80;99.90;;;;;;5033279;28;20057;-71
2021/11/21 15:06:36;;;;;;;28.00;14.20;;;14.70;99.90;;;;;;5022370;28;20041;-71
2021/11/21 15:09:40;;;;;;;25.27;13.68;;;14.70;99.90;;;;;;5032426;28;20052;-71
2021/11/21 15:12:45;;;;;;;20.33;12.05;;;14.60;99.90;;;;;;5030936;28;20111;-71
2021/11/21 15:15:49;;;;;;;25.10;13.23;;;14.40;99.90;;;;;;5030831;28;20048;-70
2021/11/21 15:18:54;;;;;;;446.52;203.70;;;14.40;99.90;;;;;;5032500;28;20045;-70
2021/11/21 15:21:59;;;;;;;334.08;149.10;;;14.30;99.90;;;;;;5012739;28;20057;-70
2021/11/21 15:25:05;;;;;;;77.75;39.05;;;14.20;99.90;;;;;;5025557;28;20044;-70
2021/11/21 15:28:09;;;;;;;34.30;18.30;;;14.10;99.90;;;;;;5031997;28;20088;-70
2021/11/21 15:31:16;;;;;;;32.90;18.85;;;14.00;99.90;;;;;;5032437;28;20044;-71
2021/11/21 15:34:20;;;;;;;27.73;15.73;;;13.80;99.90;;;;;;5031399;28;20048;-71
2021/11/21 15:37:25;;;;;;;25.02;16.90;;;13.70;99.90;;;;;;5032205;28;20388;-71
2021/11/21 15:40:29;;;;;;;30.08;18.00;;;13.60;99.90;;;;;;5031300;28;20392;-71
2021/11/21 15:43:35;;;;;;;25.63;18.38;;;13.50;99.90;;;;;;5031551;28;20045;-71
2021/11/21 15:46:39;;;;;;;32.65;20.02;;;13.40;99.90;;;;;;5031610;28;20200;-71
2021/11/21 15:49:43;;;;;;;43.80;24.83;;;13.30;99.90;;;;;;5031883;28;20044;-71